Accueil
METAR-TAF:

METAR-TAF

Aéroports :

Andora, Italie

Capo Mele

latitude: 43-57N, longitude: 008-10E, altitude: 220 m

Observation

Le bulletin a été fait il y a 35 minutes, à 12:55 UTC
Vent 16 kt de sud-ouest
Température 20°C
Humidité 73%
Pression 1009 hPa
Visibilité 10 km ou plus
Quelques nuages à une hauteur de 2300 ft, Cumulus congestus.

METAR: LIMU 221255Z 22016KT 9999 FEW023TCU 20/15 Q1009 RMK BKN QUK 3 QUL 1 S VIS MAR 12 KM VIS MIN 9999

Heure: 15:30 (13:30 UTC)


TAF: absent

Observations et prévisions météorologiques de plus de 4000 aéroports (messages METAR et TAF).

Les stations disponibles sont représentées par des disques jaunes et rouges sur la carte.

Passer la souris dessus pour voir le nom de la station.

Cliquer dessus pour voir les observations et prévisions météorologiques.

Pour changer de carte: cliquez sur les boutons verts avec une croix noire pour zoomer, sur le bouton vert avec un tiret pour effectuer un zoom arrière, ou sur les flèches vertes pour les cartes adjacentes.


METAR-TAF: